This is the latest recevied weather packets stored in our database for station/object WX7FGZ-7. If no packets are shown the sender has not sent any weather packets the latest 1 day(s).
| Time | Temp. | Humidity | Pressure | Rain* | Wind** | Luminosity | Snow |
|---|---|---|---|---|---|---|---|
| 1778030416 | 15.56° C | 36% | 1010.9 hPa | 0 mm | - | - | - |
| 1778030150 | 15.56° C | 34% | 1010.8 hPa | 0 mm | - | - | - |
| 1778029699 | 15.56° C | 35% | 1010.4 hPa | 0 mm | - | - | - |
| 1778029546 | 15.56° C | 35% | 1010.4 hPa | 0 mm | - | - | - |
| 1778029407 | 15.56° C | 35% | 1010.3 hPa | 0 mm | - | - | - |
| 1778028622 | 15.56° C | 35% | 1010 hPa | 0 mm | - | - | - |
| 1778028427 | 15.56° C | 36% | 1010 hPa | 0 mm | - | - | - |
| 1778027853 | 16.11° C | 34% | 1009.9 hPa | 0 mm | - | - | - |
| 1778027268 | 16.67° C | 33% | 1009.4 hPa | 0 mm | - | - | - |
| 1778026940 | 16.67° C | 33% | 1009.5 hPa | 0 mm | - | - | - |
| 1778026817 | 16.67° C | 33% | 1009.5 hPa | 0 mm | - | - | - |
| 1778026221 | 16.67° C | 33% | 1009.3 hPa | 0 mm | - | - | - |
| 1778026095 | 16.67° C | 34% | 1009.5 hPa | 0 mm | - | - | - |
| 1778025928 | 16.67° C | 34% | 1009.5 hPa | 0 mm | - | - | - |
| 1778022819 | 16.67° C | 33% | 1009.4 hPa | 0 mm | - | - | - |
| 1778021905 | 16.11° C | 35% | 1009.6 hPa | 0 mm | - | - | - |
| 1778020703 | 16.67° C | 33% | 1010.6 hPa | 0 mm | - | - | - |
| 1778019803 | 16.67° C | 33% | 1010.6 hPa | 0 mm | - | - | - |
| 1778019503 | 16.67° C | 32% | 1010.7 hPa | 0 mm | - | - | - |
| 1778016818 | 20° C | 24% | 1010.6 hPa | 0 mm | - | - | - |
| 1778015903 | 20° C | 24% | 1010.7 hPa | 0 mm | - | - | - |
| 1778015003 | 20.56° C | 22% | 1010.8 hPa | 0 mm | - | - | - |
| 1778013203 | 20° C | 25% | 1011.2 hPa | 0 mm | - | - | - |
| 1778012613 | 20.56° C | 25% | 1011.3 hPa | 0 mm | - | - | - |
| 1778012012 | 19.44° C | 26% | 1011.5 hPa | 0 mm | - | - | - |
* Rain latest hour (hover to see other rain measurements)
** Current wind speed in m/s (hover to see current wind gust speed)